Time;durP1;ratioP1;P1;durP2;ratioP2;P2;SDS_P1;SDS_P2;PMS_P1;PMS_P2;Temp;Humidity;BMP_temperature;BMP_pressure;BME280_temperature;BME280_humidity;BME280_pressure;Samples;Min_cycle;Max_cycle;Signal;HPM_P1;HPM_P2
2022/07/30 00:01:59;;;;;;;7.35;6.50;;;;;;;28.14;45.74;100821.53;5071417;28;20387;-65
2022/07/30 00:04:25;;;;;;;7.67;6.47;;;;;;;28.11;45.56;100832.19;5086014;28;20374;-65
2022/07/30 00:06:51;;;;;;;6.90;6.17;;;;;;;28.08;45.78;100828.13;5058496;28;20397;-65
2022/07/30 00:09:17;;;;;;;7.72;6.40;;;;;;;28.06;45.85;100830.31;5063624;28;20906;-65
2022/07/30 00:11:42;;;;;;;7.25;6.55;;;;;;;28.09;45.80;100837.09;5072057;28;20397;-67
2022/07/30 00:14:08;;;;;;;8.35;6.43;;;;;;;28.05;45.87;100838.78;5071883;28;20899;-65
2022/07/30 00:16:33;;;;;;;7.88;6.53;;;;;;;28.02;45.92;100848.34;5062231;28;20380;-65
2022/07/30 00:18:59;;;;;;;7.17;6.40;;;;;;;27.95;45.96;100837.75;5056538;28;20393;-65
2022/07/30 00:21:24;;;;;;;9.70;5.97;;;;;;;27.95;44.94;100839.69;5052820;28;20388;-65
2022/07/30 00:23:50;;;;;;;6.67;5.70;;;;;;;27.97;44.78;100842.94;5054046;28;20373;-65
2022/07/30 00:26:15;;;;;;;6.83;5.57;;;;;;;27.91;44.25;100841.31;5051555;28;20890;-65
2022/07/30 00:28:41;;;;;;;6.37;5.77;;;;;;;27.86;44.10;100834.00;5060359;28;20422;-66
2022/07/30 00:31:06;;;;;;;7.72;5.32;;;;;;;27.82;43.60;100832.91;5057528;28;20387;-65
2022/07/30 00:33:32;;;;;;;5.90;4.85;;;;;;;27.82;42.91;100841.91;5065800;28;20389;-66
2022/07/30 00:35:58;;;;;;;10.17;5.33;;;;;;;27.78;42.86;100835.38;5051384;28;20431;-66
2022/07/30 00:38:23;;;;;;;7.03;4.73;;;;;;;27.74;42.74;100838.97;5062799;28;20419;-65
2022/07/30 00:40:49;;;;;;;6.38;4.50;;;;;;;27.70;41.71;100840.63;5061213;28;20375;-65
2022/07/30 00:43:15;;;;;;;4.75;4.30;;;;;;;27.72;41.57;100836.53;5055822;28;20469;-65
2022/07/30 00:45:42;;;;;;;6.78;4.90;;;;;;;27.80;41.29;100841.38;5059841;28;20379;-66
2022/07/30 00:48:09;;;;;;;6.95;4.70;;;;;;;27.84;41.52;100850.63;5057252;28;20381;-66
2022/07/30 00:50:34;;;;;;;5.32;4.30;;;;;;;27.81;40.66;100848.44;5051585;28;20391;-65
2022/07/30 00:53:00;;;;;;;7.80;4.40;;;;;;;27.84;40.69;100852.53;5051610;28;20381;-65
2022/07/30 00:55:25;;;;;;;5.97;4.47;;;;;;;27.88;40.13;100850.88;5065313;28;20482;-65
2022/07/30 00:57:51;;;;;;;7.77;4.30;;;;;;;27.91;40.47;100855.78;5061050;28;20426;-65
2022/07/30 01:00:16;;;;;;;5.30;4.23;;;;;;;27.89;40.27;100855.19;5069882;28;20379;-65
2022/07/30 01:02:42;;;;;;;8.20;4.10;;;;;;;27.88;39.86;100861.75;5051349;28;20389;-65
2022/07/30 01:05:09;;;;;;;6.03;4.43;;;;;;;27.93;39.73;100872.66;5051053;28;20387;-65
2022/07/30 01:07:34;;;;;;;5.57;4.30;;;;;;;27.95;40.20;100867.75;5065215;28;20389;-65
2022/07/30 01:10:00;;;;;;;6.63;4.38;;;;;;;27.99;40.05;100874.25;5062950;28;20923;-65
2022/07/30 01:12:27;;;;;;;6.67;4.03;;;;;;;27.99;40.23;100878.88;5056466;28;20395;-66
2022/07/30 01:17:08;;;;;;;5.40;4.10;;;;;;;28.03;40.22;100877.22;5091318;27;20406;-65
2022/07/30 01:19:54;;;;;;;5.57;4.63;;;;;;;28.02;40.47;100870.16;5067068;28;20396;-65
2022/07/30 01:22:25;;;;;;;7.90;4.32;;;;;;;27.98;40.40;100867.19;5066466;28;20441;-66
2022/07/30 01:25:02;;;;;;;6.30;4.70;;;;;;;28.01;40.27;100871.22;5067033;28;20372;-65
2022/07/30 01:27:32;;;;;;;5.00;4.30;;;;;;;27.98;40.35;100869.06;5065490;28;20384;-65
2022/07/30 01:30:00;;;;;;;8.20;4.68;;;;;;;27.98;40.37;100874.53;5065376;28;20407;-66
2022/07/30 01:32:27;;;;;;;5.85;4.40;;;;;;;27.93;40.44;100874.56;5066703;28;20419;-65
2022/07/30 01:34:55;;;;;;;5.10;4.03;;;;;;;27.83;40.15;100872.69;5066343;28;20372;-66
2022/07/30 01:37:22;;;;;;;6.40;4.47;;;;;;;27.82;40.32;100860.97;5066397;28;20420;-65
2022/07/30 01:39:49;;;;;;;6.13;4.25;;;;;;;27.71;40.58;100856.66;5066445;28;20388;-65
2022/07/30 01:42:17;;;;;;;5.45;4.55;;;;;;;27.55;40.60;100847.81;5066236;28;20384;-65
2022/07/30 01:44:44;;;;;;;6.18;4.38;;;;;;;27.42;41.29;100845.69;5052101;28;20385;-66
2022/07/30 01:47:12;;;;;;;5.47;4.30;;;;;;;27.41;41.11;100842.16;5066238;28;20789;-66
2022/07/30 01:49:40;;;;;;;5.93;4.10;;;;;;;27.38;41.44;100834.53;5066119;28;20391;-65
2022/07/30 01:52:08;;;;;;;7.53;4.50;;;;;;;27.26;41.63;100828.56;5066368;28;20453;-66
2022/07/30 01:54:36;;;;;;;7.03;4.27;;;;;;;27.25;41.87;100824.22;5066316;28;20391;-65
2022/07/30 01:57:03;;;;;;;6.43;4.50;;;;;;;27.16;41.79;100828.63;5051715;28;20793;-65
2022/07/30 01:59:32;;;;;;;4.73;4.10;;;;;;;27.11;42.28;100825.94;5066111;28;20454;-65
2022/07/30 02:01:58;;;;;;;6.13;4.45;;;;;;;27.05;42.50;100831.38;5064644;28;20934;-64
2022/07/30 02:04:24;;;;;;;11.25;4.60;;;;;;;26.98;42.36;100816.47;5066056;28;20378;-66
2022/07/30 02:07:03;;;;;;;7.30;4.77;;;;;;;26.96;42.69;100827.63;5065540;28;20467;-64
2022/07/30 02:09:35;;;;;;;4.70;4.20;;;;;;;26.94;42.62;100826.25;5065960;28;20384;-65
2022/07/30 02:12:54;;;;;;;4.93;4.35;;;;;;;27.05;42.89;100823.22;5086779;27;20914;-66
2022/07/30 02:16:05;;;;;;;7.10;4.22;;;;;;;27.04;43.25;100820.78;5052006;28;20411;-66
2022/07/30 02:18:42;;;;;;;9.57;4.10;;;;;;;27.03;43.85;100811.81;5026718;28;20917;-66
2022/07/30 02:21:09;;;;;;;6.38;4.28;;;;;;;27.07;44.23;100817.50;5040984;28;20393;-66
2022/07/30 02:23:39;;;;;;;6.82;4.35;;;;;;;27.14;44.40;100826.19;5026904;28;20482;-65
2022/07/30 02:26:07;;;;;;;6.72;4.22;;;;;;;27.13;44.83;100826.47;5026786;28;20391;-66
2022/07/30 02:28:37;;;;;;;5.68;4.10;;;;;;;27.09;45.29;100840.63;5026626;28;20731;-65
2022/07/30 02:31:04;;;;;;;8.15;4.32;;;;;;;27.08;45.59;100830.84;5026680;28;20383;-65
2022/07/30 02:33:35;;;;;;;5.18;3.88;;;;;;;27.14;45.95;100833.53;5026874;28;20381;-66
2022/07/30 02:36:02;;;;;;;7.07;4.45;;;;;;;27.23;45.61;100826.44;5026502;28;20411;-66
2022/07/30 02:38:29;;;;;;;5.10;4.60;;;;;;;27.24;46.14;100830.75;5026738;28;20390;-66
2022/07/30 02:40:58;;;;;;;5.47;4.03;;;;;;;27.24;46.16;100833.47;5026431;28;20414;-66
2022/07/30 02:43:25;;;;;;;5.73;4.40;;;;;;;27.30;45.94;100837.84;5026323;28;20390;-65
2022/07/30 02:45:51;;;;;;;8.90;4.30;;;;;;;27.36;45.88;100842.16;5026632;28;20878;-66
2022/07/30 02:48:19;;;;;;;5.05;4.30;;;;;;;27.42;45.62;100842.94;5026027;28;20762;-66
2022/07/30 02:50:47;;;;;;;6.93;4.50;;;;;;;27.49;45.30;100851.63;5026633;28;20411;-66
2022/07/30 02:53:14;;;;;;;6.78;4.90;;;;;;;27.49;45.31;100856.28;5026297;28;20473;-66
2022/07/30 02:55:42;;;;;;;7.60;5.07;;;;;;;27.46;45.38;100844.84;5026434;28;20415;-65
2022/07/30 02:58:08;;;;;;;8.63;4.88;;;;;;;27.53;45.59;100855.44;5026208;28;20542;-66
2022/07/30 03:00:34;;;;;;;7.38;4.68;;;;;;;27.52;45.49;100850.28;5026518;28;20379;-66
2022/07/30 03:03:03;;;;;;;8.75;4.60;;;;;;;27.53;45.36;100846.44;5026415;28;20414;-66
2022/07/30 03:05:30;;;;;;;5.85;4.55;;;;;;;27.48;45.84;100846.47;5026026;28;20808;-66
2022/07/30 03:07:57;;;;;;;8.43;4.47;;;;;;;27.48;46.05;100841.84;5013929;28;20436;-66
2022/07/30 03:10:24;;;;;;;7.78;4.63;;;;;;;27.51;46.06;100849.44;5023672;28;20421;-65
2022/07/30 03:12:50;;;;;;;7.47;4.97;;;;;;;27.55;46.32;100858.69;5041408;28;20809;-66
2022/07/30 03:15:16;;;;;;;8.13;4.63;;;;;;;27.56;46.30;100864.94;5025909;28;20431;-66
2022/07/30 03:17:44;;;;;;;7.55;4.65;;;;;;;27.59;46.11;100862.47;5025890;28;20399;-65
2022/07/30 03:20:14;;;;;;;5.40;4.80;;;;;;;27.61;46.15;100863.00;5025777;28;20391;-67
2022/07/30 03:22:42;;;;;;;5.72;4.70;;;;;;;27.56;46.23;100863.03;5025849;28;20398;-66
2022/07/30 03:25:12;;;;;;;10.40;4.65;;;;;;;27.54;46.61;100872.59;5024671;28;20450;-65
2022/07/30 03:27:40;;;;;;;7.88;5.00;;;;;;;27.56;46.41;100870.41;5010515;28;20396;-65
2022/07/30 03:30:06;;;;;;;5.97;4.70;;;;;;;27.56;46.89;100873.91;5011357;28;20422;-67
2022/07/30 03:32:33;;;;;;;7.30;4.70;;;;;;;27.59;46.88;100873.38;5012399;28;20388;-65
2022/07/30 03:35:00;;;;;;;7.18;4.53;;;;;;;27.58;46.67;100869.00;5012339;28;20423;-65
2022/07/30 03:37:26;;;;;;;7.10;4.30;;;;;;;27.60;46.80;100868.72;5012412;28;20406;-66
2022/07/30 03:39:53;;;;;;;5.77;4.33;;;;;;;27.64;47.13;100883.41;5012535;28;20380;-66
2022/07/30 03:42:20;;;;;;;6.65;4.80;;;;;;;27.63;47.14;100870.91;5012002;28;20392;-66
2022/07/30 03:44:47;;;;;;;6.80;4.30;;;;;;;27.56;47.41;100878.56;5012460;28;20391;-65
2022/07/30 03:47:14;;;;;;;6.72;4.55;;;;;;;27.52;47.33;100866.59;5011758;28;20468;-66
2022/07/30 03:49:40;;;;;;;7.25;4.55;;;;;;;27.48;47.44;100870.97;5012434;28;20384;-65
2022/07/30 03:52:07;;;;;;;5.25;4.68;;;;;;;27.48;47.67;100876.41;5012020;28;20411;-65
2022/07/30 03:54:33;;;;;;;6.88;4.63;;;;;;;27.42;47.29;100887.34;5012161;28;20454;-65
2022/07/30 03:57:00;;;;;;;7.38;4.57;;;;;;;27.38;47.71;100885.44;5012019;28;20822;-65
2022/07/30 03:59:27;;;;;;;4.70;4.30;;;;;;;27.39;47.74;100885.19;5011798;28;20396;-66
2022/07/30 04:01:53;;;;;;;9.07;4.65;;;;;;;27.45;47.71;100888.69;5002982;28;20404;-65
2022/07/30 04:04:43;;;;;;;7.57;4.78;;;;;;;27.41;47.57;100882.19;4998378;28;20390;-65
2022/07/30 04:07:08;;;;;;;6.90;4.65;;;;;;;27.40;47.52;100891.44;4998617;28;20434;-65
2022/07/30 04:09:34;;;;;;;6.18;4.43;;;;;;;27.39;47.56;100881.66;5011294;28;20455;-66
2022/07/30 04:12:01;;;;;;;10.27;4.70;;;;;;;27.45;47.30;100885.97;5011151;28;20825;-65
2022/07/30 04:14:38;;;;;;;5.72;4.60;;;;;;;27.45;47.42;100888.69;5011647;28;20432;-65
2022/07/30 04:17:08;;;;;;;5.65;4.65;;;;;;;27.50;47.74;100885.13;5015408;28;20404;-65
2022/07/30 04:21:07;;;;;;;5.55;4.25;;;;;;;27.59;47.14;100894.34;5095097;27;20410;-66
2022/07/30 04:23:33;;;;;;;7.97;4.80;;;;;;;27.65;47.23;100895.94;5083366;28;20472;-66
2022/07/30 04:26:00;;;;;;;6.13;4.73;;;;;;;27.67;47.45;100892.94;5066621;28;20384;-66
2022/07/30 04:28:26;;;;;;;9.73;4.72;;;;;;;27.71;47.08;100894.00;5066638;28;20380;-66
2022/07/30 04:30:53;;;;;;;8.32;5.13;;;;;;;27.67;47.30;100892.94;5066616;28;20503;-66
2022/07/30 04:33:19;;;;;;;8.43;5.65;;;;;;;27.71;47.07;100902.16;5066740;28;20440;-66
2022/07/30 04:35:45;;;;;;;6.57;5.00;;;;;;;27.74;46.96;100907.06;5066612;28;20471;-66
2022/07/30 04:38:13;;;;;;;6.53;4.90;;;;;;;27.78;47.03;100899.94;5066334;28;20388;-66
2022/07/30 04:40:39;;;;;;;8.45;5.35;;;;;;;27.81;46.88;100893.94;5066569;28;20508;-67
2022/07/30 04:43:05;;;;;;;5.95;4.40;;;;;;;27.95;46.60;100897.72;5066384;28;20869;-66
2022/07/30 04:45:31;;;;;;;8.27;5.30;;;;;;;28.48;45.61;100896.22;5066252;28;20439;-65
2022/07/30 04:47:56;;;;;;;6.00;4.60;;;;;;;29.51;43.42;100907.75;5066376;28;20391;-65
2022/07/30 04:50:25;;;;;;;8.63;4.90;;;;;;;28.93;44.68;100905.91;5066225;28;20388;-66
2022/07/30 04:52:54;;;;;;;7.50;5.00;;;;;;;28.65;45.06;100901.28;5066393;28;20379;-66
2022/07/30 04:55:21;;;;;;;5.20;4.68;;;;;;;28.56;45.51;100903.84;5066134;28;20893;-67
2022/07/30 04:57:49;;;;;;;10.00;5.25;;;;;;;28.96;44.83;100910.00;5066288;28;20402;-66
2022/07/30 05:00:16;;;;;;;9.52;5.00;;;;;;;28.87;44.92;100914.44;5066105;28;20420;-66
2022/07/30 05:02:43;;;;;;;9.45;5.00;;;;;;;28.76;45.04;100906.34;5065834;28;20415;-68
2022/07/30 05:05:11;;;;;;;7.85;4.88;;;;;;;28.79;45.08;100913.97;5065757;28;20391;-66
2022/07/30 05:07:38;;;;;;;7.53;4.63;;;;;;;28.75;45.17;100915.63;5066037;28;20896;-66
2022/07/30 05:10:04;;;;;;;9.35;4.90;;;;;;;28.69;45.07;100916.00;5065784;28;20453;-66
2022/07/30 05:12:37;;;;;;;10.18;5.10;;;;;;;28.51;45.24;100920.22;5065731;28;20886;-66
2022/07/30 05:15:07;;;;;;;7.83;5.10;;;;;;;28.32;45.45;100909.97;5065354;28;20388;-66
2022/07/30 05:17:33;;;;;;;7.88;4.90;;;;;;;28.31;45.81;100910.28;5066039;28;20392;-66
2022/07/30 05:19:58;;;;;;;6.53;4.77;;;;;;;28.21;45.72;100917.41;5065047;28;20787;-66
2022/07/30 05:22:28;;;;;;;7.82;4.72;;;;;;;28.20;45.62;100913.06;5065515;28;20450;-66
2022/07/30 05:24:57;;;;;;;8.60;4.80;;;;;;;28.08;45.75;100918.06;5065649;28;20384;-64
2022/07/30 05:27:23;;;;;;;5.88;4.75;;;;;;;28.07;45.75;100921.88;5065229;28;20887;-65
2022/07/30 05:29:48;;;;;;;7.65;5.03;;;;;;;28.01;45.77;100923.81;5071571;28;20880;-65
2022/07/30 05:32:14;;;;;;;11.53;5.00;;;;;;;27.98;46.01;100915.38;5061865;28;20807;-66
2022/07/30 05:34:39;;;;;;;7.70;4.63;;;;;;;28.10;45.61;100917.78;5052017;28;20387;-63
2022/07/30 05:37:05;;;;;;;12.13;5.13;;;;;;;28.30;45.58;100911.38;5052935;28;20937;-67
2022/07/30 05:39:31;;;;;;;6.38;4.78;;;;;;;28.39;45.22;100912.38;5051397;28;20555;-65
2022/07/30 05:41:56;;;;;;;8.33;5.07;;;;;;;28.28;45.82;100913.56;5054267;28;20742;-63
2022/07/30 05:44:22;;;;;;;6.23;5.03;;;;;;;28.24;45.60;100910.59;5052856;28;20399;-63
2022/07/30 05:46:48;;;;;;;6.65;4.80;;;;;;;28.38;45.58;100918.94;5051879;28;20882;-63
2022/07/30 05:49:14;;;;;;;5.60;4.85;;;;;;;28.34;45.72;100923.31;5051162;28;20381;-64
2022/07/30 05:51:40;;;;;;;6.35;4.90;;;;;;;28.51;45.06;100921.00;5051394;28;20392;-64
2022/07/30 05:54:06;;;;;;;7.28;4.82;;;;;;;28.60;44.91;100916.59;5051799;28;20392;-64
2022/07/30 05:56:32;;;;;;;7.75;5.00;;;;;;;28.70;44.73;100918.44;5051594;28;20392;-64
2022/07/30 05:58:58;;;;;;;8.57;4.85;;;;;;;29.42;43.14;100919.59;5050977;28;20475;-64
2022/07/30 06:01:23;;;;;;;6.88;4.68;;;;;;;33.69;35.40;100921.44;5051072;28;20506;-64
2022/07/30 06:03:49;;;;;;;6.57;4.97;;;;;;;39.85;26.00;100893.19;5056239;28;20894;-64
2022/07/30 06:06:14;;;;;;;7.07;4.70;;;;;;;43.12;22.00;100889.28;5050983;28;20812;-64
2022/07/30 06:08:40;;;;;;;9.02;4.40;;;;;;;45.01;19.92;100882.56;5054376;28;20408;-64
2022/07/30 06:11:07;;;;;;;6.47;4.30;;;;;;;46.18;18.56;100876.06;5051850;28;20412;-64
2022/07/30 06:13:33;;;;;;;6.32;4.47;;;;;;;47.65;16.90;100882.22;5050192;28;20414;-65
2022/07/30 06:15:59;;;;;;;4.47;4.03;;;;;;;47.78;16.64;100883.25;5051248;28;20390;-64
2022/07/30 06:18:24;;;;;;;7.00;4.20;;;;;;;47.13;17.28;100882.41;5051279;28;20437;-64
2022/07/30 06:20:50;;;;;;;6.00;4.27;;;;;;;44.93;19.00;100881.00;5051411;28;20914;-64
2022/07/30 06:23:16;;;;;;;7.97;4.30;;;;;;;40.54;23.69;100890.56;5051907;28;20384;-64
2022/07/30 06:25:42;;;;;;;6.35;4.60;;;;;;;38.17;26.45;100888.00;5051052;28;20380;-64
2022/07/30 06:28:07;;;;;;;7.50;4.32;;;;;;;37.92;27.19;100896.38;5051097;28;20392;-64
2022/07/30 06:30:33;;;;;;;4.97;4.40;;;;;;;37.65;27.14;100896.03;5051152;28;20380;-64
2022/07/30 06:32:58;;;;;;;6.43;4.30;;;;;;;36.99;27.95;100897.09;5051208;28;20755;-64
2022/07/30 06:35:24;;;;;;;6.87;4.60;;;;;;;36.70;28.49;100892.59;5051069;28;20388;-63
2022/07/30 06:37:49;;;;;;;6.20;4.50;;;;;;;36.25;29.34;100896.13;5051023;28;20434;-64
2022/07/30 06:40:15;;;;;;;5.13;4.40;;;;;;;42.38;21.86;100888.28;5050956;28;20470;-63
2022/07/30 06:42:40;;;;;;;8.07;4.73;;;;;;;47.11;16.78;100886.47;5050294;28;20392;-64
2022/07/30 06:45:06;;;;;;;6.33;4.53;;;;;;;49.29;14.88;100872.25;5050490;28;20385;-64
2022/07/30 06:47:33;;;;;;;5.32;4.28;;;;;;;49.79;14.16;100861.13;5050924;28;20438;-64
2022/07/30 06:50:00;;;;;;;5.45;4.63;;;;;;;51.00;13.48;100860.06;5050685;28;20385;-65
2022/07/30 06:52:26;;;;;;;9.02;4.88;;;;;;;51.44;13.14;100857.53;5050503;28;20906;-63
2022/07/30 06:54:51;;;;;;;6.50;4.60;;;;;;;52.30;12.22;100862.53;5050943;28;20453;-63
2022/07/30 06:57:17;;;;;;;5.50;4.57;;;;;;;52.71;11.84;100857.88;5049533;28;20385;-62
2022/07/30 06:59:43;;;;;;;5.60;4.30;;;;;;;53.66;11.22;100855.91;5051639;28;20462;-62
2022/07/30 07:02:09;;;;;;;6.10;4.80;;;;;;;53.89;11.28;100860.25;5049641;28;20744;-63
2022/07/30 07:04:35;;;;;;;5.50;4.60;;;;;;;52.89;11.55;100853.59;5051642;28;20400;-64
2022/07/30 07:07:00;;;;;;;8.83;4.67;;;;;;;52.67;11.98;100864.88;5049515;28;20457;-63
2022/07/30 07:09:26;;;;;;;7.60;4.60;;;;;;;53.56;11.52;100851.47;5049761;28;20381;-63
2022/07/30 07:11:51;;;;;;;6.70;4.80;;;;;;;54.54;10.16;100852.66;5051931;28;20381;-63
2022/07/30 07:14:16;;;;;;;6.50;4.80;;;;;;;54.47;10.67;100861.44;5054905;28;20422;-62
2022/07/30 07:16:42;;;;;;;7.13;4.88;;;;;;;53.33;10.71;100864.13;5049645;28;20763;-63
2022/07/30 07:19:08;;;;;;;7.83;4.63;;;;;;;48.78;14.60;100866.78;5053199;28;20464;-61
2022/07/30 07:21:33;;;;;;;6.47;4.80;;;;;;;45.32;17.64;100863.28;5057034;28;20439;-62
2022/07/30 07:24:02;;;;;;;7.53;4.57;;;;;;;43.03;20.15;100886.03;5055062;28;20709;-63
2022/07/30 07:26:28;;;;;;;6.82;5.10;;;;;;;41.94;21.21;100881.47;5046620;28;20412;-61
2022/07/30 07:28:54;;;;;;;5.20;4.70;;;;;;;40.66;22.75;100881.22;5058292;28;20480;-61
2022/07/30 07:31:19;;;;;;;8.45;4.78;;;;;;;39.64;24.03;100877.72;5058845;28;20480;-62
2022/07/30 07:33:46;;;;;;;8.05;4.95;;;;;;;38.42;25.38;100889.44;5043621;28;20376;-61
2022/07/30 07:36:12;;;;;;;6.60;5.07;;;;;;;38.00;25.82;100883.56;5060547;28;20938;-61
2022/07/30 07:38:38;;;;;;;5.90;5.00;;;;;;;37.45;26.78;100889.44;5060040;28;20414;-62
2022/07/30 07:41:04;;;;;;;6.40;5.10;;;;;;;37.12;27.32;100881.31;5052452;28;20419;-62
2022/07/30 07:43:30;;;;;;;8.45;5.10;;;;;;;36.94;27.67;100883.50;5054077;28;20401;-62
2022/07/30 07:45:56;;;;;;;9.10;5.13;;;;;;;36.62;28.47;100882.41;5060250;28;20777;-62
2022/07/30 07:48:21;;;;;;;6.53;5.10;;;;;;;36.36;29.14;100881.56;5050951;28;20918;-62
2022/07/30 07:50:47;;;;;;;7.97;4.80;;;;;;;35.87;29.85;100889.66;5049426;28;20498;-62
2022/07/30 07:53:13;;;;;;;7.57;5.10;;;;;;;35.08;30.92;100877.47;5049260;28;20411;-62
2022/07/30 07:55:39;;;;;;;5.45;5.00;;;;;;;34.63;31.48;100884.31;5048724;28;20914;-62
2022/07/30 07:58:04;;;;;;;7.80;5.25;;;;;;;34.34;32.09;100876.75;5062838;28;20440;-61
2022/07/30 08:00:30;;;;;;;5.93;4.80;;;;;;;34.54;32.17;100861.50;5049108;28;20436;-61
2022/07/30 08:02:56;;;;;;;6.63;5.40;;;;;;;34.73;31.99;100856.44;5049060;28;20392;-61
2022/07/30 08:05:22;;;;;;;6.43;5.15;;;;;;;34.88;32.08;100862.53;5049219;28;20381;-62
2022/07/30 08:07:47;;;;;;;6.37;4.80;;;;;;;34.79;32.13;100857.03;5048125;28;20392;-61
2022/07/30 08:10:14;;;;;;;6.37;5.27;;;;;;;34.30;32.85;100865.59;5049481;28;21214;-61
2022/07/30 08:12:40;;;;;;;6.47;5.30;;;;;;;33.70;33.84;100861.78;5057286;28;20967;-62
2022/07/30 08:15:08;;;;;;;7.87;5.33;;;;;;;33.76;34.02;100852.22;5054652;28;20408;-61
2022/07/30 08:17:42;;;;;;;6.23;5.63;;;;;;;33.71;34.21;100852.41;5048275;28;20384;-63
2022/07/30 08:20:09;;;;;;;6.88;5.22;;;;;;;33.57;34.30;100849.78;5047581;28;20417;-61
2022/07/30 08:22:35;;;;;;;7.38;5.50;;;;;;;33.46;34.85;100852.03;5048498;28;20386;-61
2022/07/30 08:25:01;;;;;;;9.50;5.30;;;;;;;33.60;34.45;100846.38;5048519;28;20460;-62
2022/07/30 08:27:26;;;;;;;11.53;6.40;;;;;;;33.56;35.03;100853.63;5049609;28;20754;-62
2022/07/30 08:29:52;;;;;;;9.30;6.00;;;;;;;33.39;34.89;100854.44;5049588;28;20440;-61
2022/07/30 08:32:17;;;;;;;6.37;5.40;;;;;;;33.18;35.14;100859.72;5049064;28;20468;-62
2022/07/30 08:34:43;;;;;;;8.80;5.40;;;;;;;33.21;35.24;100863.78;5048743;28;20400;-62
2022/07/30 08:37:09;;;;;;;6.00;5.40;;;;;;;33.37;34.92;100866.88;5049503;28;20754;-63
2022/07/30 08:39:34;;;;;;;10.40;6.53;;;;;;;33.54;35.03;100872.41;5048597;28;20411;-62
2022/07/30 08:42:02;;;;;;;8.90;5.63;;;;;;;33.70;34.97;100868.06;5049310;28;20469;-61
2022/07/30 08:44:28;;;;;;;7.77;6.03;;;;;;;33.88;34.58;100865.31;5048923;28;20385;-63
2022/07/30 08:46:56;;;;;;;7.25;5.70;;;;;;;33.93;34.53;100856.91;5047920;28;20790;-62
2022/07/30 08:49:22;;;;;;;8.10;5.80;;;;;;;34.02;34.22;100860.47;5049068;28;20774;-62
2022/07/30 08:51:49;;;;;;;7.63;5.18;;;;;;;33.84;34.28;100858.88;5048756;28;20381;-62
2022/07/30 08:54:15;;;;;;;6.83;5.40;;;;;;;33.46;34.83;100857.53;5048817;28;20430;-62
2022/07/30 08:56:41;;;;;;;9.48;6.05;;;;;;;33.51;34.84;100853.78;5048836;28;20388;-63
2022/07/30 08:59:06;;;;;;;8.37;5.43;;;;;;;33.56;34.79;100844.59;5048924;28;20495;-63
2022/07/30 09:01:32;;;;;;;6.78;5.57;;;;;;;33.76;34.30;100834.91;5048542;28;20441;-64
2022/07/30 09:03:57;;;;;;;8.25;5.90;;;;;;;33.85;34.21;100836.53;5048979;28;20377;-63
2022/07/30 09:06:23;;;;;;;8.38;5.38;;;;;;;33.67;34.97;100833.00;5050335;28;20742;-62
2022/07/30 09:08:48;;;;;;;7.88;5.63;;;;;;;33.76;34.90;100827.47;5051898;28;20381;-62
2022/07/30 09:11:14;;;;;;;6.57;5.20;;;;;;;33.80;34.68;100830.38;5052323;28;20438;-62
2022/07/30 09:13:41;;;;;;;6.77;5.40;;;;;;;33.62;35.27;100824.03;5055171;28;20394;-62
2022/07/30 09:16:19;;;;;;;7.47;5.90;;;;;;;33.63;35.02;100823.72;5068989;28;20904;-63
2022/07/30 09:18:44;;;;;;;6.45;5.53;;;;;;;33.36;35.58;100821.31;5068154;28;20382;-62
2022/07/30 09:22:54;;;;;;;6.95;5.78;;;;;;;33.39;35.64;100812.41;5068324;27;20408;-63
2022/07/30 09:25:40;;;;;;;6.55;5.20;;;;;;;33.00;35.97;100803.13;5063314;28;20467;-64
2022/07/30 09:28:08;;;;;;;11.38;5.80;;;;;;;32.83;36.41;100799.19;5059579;28;20487;-65
2022/07/30 09:30:45;;;;;;;6.32;5.32;;;;;;;32.86;36.08;100803.22;5062030;28;20386;-64
2022/07/30 09:33:12;;;;;;;10.48;5.90;;;;;;;32.98;36.03;100797.94;5058735;28;20396;-63
2022/07/30 09:35:38;;;;;;;10.15;5.43;;;;;;;33.02;35.33;100792.63;5063773;28;20384;-63
2022/07/30 09:38:05;;;;;;;8.50;5.53;;;;;;;32.99;35.07;100794.06;5048195;28;20389;-64
2022/07/30 09:40:31;;;;;;;9.73;5.32;;;;;;;32.95;34.74;100788.41;5051399;28;20380;-64
2022/07/30 09:43:08;;;;;;;6.03;5.40;;;;;;;32.93;34.67;100782.41;5050612;28;20373;-63
2022/07/30 09:45:34;;;;;;;8.13;5.50;;;;;;;32.99;34.89;100788.59;5051057;28;20458;-63
2022/07/30 09:48:00;;;;;;;8.55;5.38;;;;;;;33.03;34.57;100777.78;5050945;28;20476;-63
2022/07/30 09:50:26;;;;;;;8.55;5.70;;;;;;;33.06;34.06;100769.69;5049700;28;20909;-63
2022/07/30 09:52:53;;;;;;;6.93;5.60;;;;;;;33.08;34.50;100780.34;5052629;28;20370;-63
2022/07/30 09:55:47;;;;;;;8.07;5.57;;;;;;;33.09;34.32;100760.78;5045940;28;20377;-63
2022/07/30 09:58:13;;;;;;;11.70;5.28;;;;;;;33.11;34.12;100757.72;5036069;28;20401;-63
2022/07/30 10:00:40;;;;;;;7.63;5.43;;;;;;;33.13;34.02;100759.06;5050318;28;20881;-63
2022/07/30 10:03:24;;;;;;;6.55;4.90;;;;;;;33.23;34.01;100754.38;5063443;28;20392;-63
2022/07/30 10:05:56;;;;;;;6.97;5.60;;;;;;;33.28;33.80;100752.28;5058528;28;20913;-64
2022/07/30 10:08:46;;;;;;;7.47;5.33;;;;;;;33.41;33.61;100750.50;5052883;28;20945;-64
2022/07/30 10:11:18;;;;;;;6.97;5.30;;;;;;;33.34;33.65;100748.22;5051599;28;20942;-63
2022/07/30 10:13:45;;;;;;;9.38;5.22;;;;;;;33.28;33.49;100738.56;5060816;28;20393;-65
2022/07/30 10:16:12;;;;;;;10.98;5.30;;;;;;;33.33;33.22;100743.88;5054910;28;20447;-63
2022/07/30 10:18:37;;;;;;;7.37;5.00;;;;;;;33.28;32.82;100737.75;5058719;28;20395;-64
2022/07/30 10:21:04;;;;;;;6.20;4.83;;;;;;;33.37;32.80;100735.81;5062611;28;20877;-64
2022/07/30 10:23:31;;;;;;;8.50;5.30;;;;;;;33.39;33.46;100732.72;5046310;28;20488;-64
2022/07/30 10:25:59;;;;;;;7.90;5.30;;;;;;;33.44;33.18;100729.78;5046875;28;20385;-63
2022/07/30 10:28:25;;;;;;;7.77;5.10;;;;;;;33.43;33.18;100722.72;5045249;28;20480;-63
2022/07/30 10:30:55;;;;;;;8.37;5.37;;;;;;;33.47;32.55;100718.97;5045013;28;20945;-63
2022/07/30 10:33:22;;;;;;;6.78;5.05;;;;;;;33.47;32.18;100712.66;5037909;28;20382;-64
2022/07/30 10:35:48;;;;;;;5.45;4.93;;;;;;;33.51;32.31;100716.38;5037257;28;20398;-64
2022/07/30 10:38:15;;;;;;;6.88;5.10;;;;;;;33.59;31.91;100707.31;5024920;28;20439;-64
2022/07/30 10:40:57;;;;;;;6.43;4.83;;;;;;;33.55;32.15;100697.28;5045939;28;20451;-64
2022/07/30 10:43:34;;;;;;;8.55;5.38;;;;;;;33.76;31.72;100684.50;5037110;28;20400;-63
2022/07/30 10:46:21;;;;;;;6.80;4.60;;;;;;;33.94;31.78;100690.75;5031526;28;20432;-63
2022/07/30 10:48:47;;;;;;;7.80;4.70;;;;;;;33.96;31.47;100688.50;5031853;28;20789;-64
2022/07/30 10:51:12;;;;;;;8.50;5.30;;;;;;;34.08;31.28;100679.53;5033162;28;20908;-64
2022/07/30 10:53:44;;;;;;;8.73;4.87;;;;;;;34.07;30.96;100669.69;5033765;28;20391;-64
2022/07/30 10:56:20;;;;;;;7.18;4.90;;;;;;;34.06;30.97;100665.31;5036838;28;20834;-64
2022/07/30 10:59:06;;;;;;;7.03;4.93;;;;;;;34.22;31.07;100669.16;5035300;28;20462;-63
2022/07/30 11:01:47;;;;;;;9.17;4.70;;;;;;;34.32;30.58;100659.69;5034825;28;20966;-64
2022/07/30 11:04:22;;;;;;;6.00;4.75;;;;;;;34.26;30.09;100655.53;5035458;28;20421;-63
2022/07/30 11:06:49;;;;;;;7.47;4.70;;;;;;;34.36;30.09;100660.66;5034687;28;20390;-64
2022/07/30 11:09:33;;;;;;;7.28;4.75;;;;;;;34.34;30.33;100648.38;5038666;28;20968;-63
2022/07/30 11:11:59;;;;;;;7.47;4.50;;;;;;;34.34;29.69;100642.84;5035693;28;20443;-63
2022/07/30 11:14:57;;;;;;;8.30;4.63;;;;;;;34.43;29.87;100636.19;5041264;28;20396;-63
2022/07/30 11:17:23;;;;;;;6.60;4.70;;;;;;;34.53;29.86;100629.47;5012732;28;20850;-63
2022/07/30 11:22:37;;;;;;;7.80;4.47;;;;;;;34.56;29.12;100623.28;5025031;28;20918;-64
2022/07/30 11:25:04;;;;;;;6.97;4.72;;;;;;;34.61;28.67;100603.00;5028091;28;20390;-64
2022/07/30 11:27:33;;;;;;;6.03;4.45;;;;;;;34.66;28.91;100608.31;5021405;28;20754;-63
2022/07/30 11:29:58;;;;;;;5.63;4.43;;;;;;;34.63;28.75;100595.25;5027802;28;20390;-64
2022/07/30 11:32:32;;;;;;;5.05;4.63;;;;;;;34.70;29.01;100594.72;5030794;28;20577;-62
2022/07/30 11:35:15;;;;;;;5.32;4.40;;;;;;;34.69;28.87;100591.16;5029895;28;20474;-63
2022/07/30 11:37:59;;;;;;;6.33;4.97;;;;;;;34.72;27.51;100579.47;5036498;28;20393;-63